Time;durP1;ratioP1;P1;durP2;ratioP2;P2;SDS_P1;SDS_P2;PMS_P1;PMS_P2;Temp;Humidity;BMP_temperature;BMP_pressure;BME280_temperature;BME280_humidity;BME280_pressure;Samples;Min_cycle;Max_cycle;Signal;HPM_P1;HPM_P2
2023/07/12 08:16:27;;;;;;;5.75;2.00;;;;;;;22.90;96.35;100603.44;21093667;27;21192;-65
2023/07/12 08:26:29;;;;;;;4.82;1.92;;;;;;;23.48;96.61;100618.59;20942926;28;20053;-64
2023/07/12 08:36:30;;;;;;;3.90;1.70;;;;;;;22.85;92.99;100630.25;20943786;28;20057;-62
2023/07/12 08:46:38;;;;;;;4.53;2.05;;;;;;;22.42;96.75;100625.97;20940491;28;20060;-61
2023/07/12 08:56:41;;;;;;;4.70;1.80;;;;;;;22.26;98.67;100642.28;20951417;28;20065;-62
2023/07/12 09:06:42;;;;;;;4.40;1.70;;;;;;;22.11;96.69;100653.81;20955451;28;20053;-63
2023/07/12 09:16:49;;;;;;;3.75;2.05;;;;;;;21.96;96.85;100667.19;20976013;28;20084;-63
2023/07/12 09:27:02;;;;;;;5.05;2.33;;;;;;;21.86;96.60;100680.91;20898561;28;20045;-63
2023/07/12 09:37:04;;;;;;;3.28;2.08;;;;;;;21.73;97.01;100664.31;20900983;28;20049;-62
2023/07/12 09:47:28;;;;;;;5.85;2.17;;;;;;;21.83;96.70;100683.09;20888708;28;20506;-63
2023/07/12 09:57:57;;;;;;;2.92;1.63;;;;;;;21.79;97.13;100679.91;20878090;28;20057;-63
2023/07/12 10:08:12;;;;;;;3.50;2.03;;;;;;;21.66;96.26;100679.53;20825823;28;21207;-63
2023/07/12 10:18:19;;;;;;;4.93;2.47;;;;;;;21.74;99.47;100682.25;20903296;28;20055;-62
2023/07/12 10:28:43;;;;;;;4.80;2.30;;;;;;;21.76;100.00;100692.91;20892746;28;20056;-62
2023/07/12 10:38:48;;;;;;;3.60;1.90;;;;;;;21.66;100.00;100696.63;20884602;28;20052;-62
2023/07/12 10:48:51;;;;;;;3.95;2.40;;;;;;;21.70;100.00;100705.28;20863293;28;20133;-62
2023/07/12 10:59:04;;;;;;;2.58;1.70;;;;;;;21.76;100.00;100706.47;20863972;28;20057;-62
2023/07/12 11:09:09;;;;;;;3.95;1.90;;;;;;;21.77;100.00;100709.03;20878148;28;20045;-62
2023/07/12 11:19:32;;;;;;;5.00;2.03;;;;;;;21.78;100.00;100726.97;20850074;28;20056;-64
2023/07/12 11:29:36;;;;;;;4.32;1.63;;;;;;;21.77;97.97;100749.66;20855212;28;20045;-64
2023/07/12 11:39:38;;;;;;;2.27;1.57;;;;;;;21.76;95.77;100744.41;20879041;28;20177;-64
2023/07/12 11:49:41;;;;;;;2.92;1.50;;;;;;;21.75;94.82;100746.28;20880864;28;20295;-64
2023/07/12 11:59:45;;;;;;;2.28;1.45;;;;;;;21.80;95.64;100748.47;20886546;28;20048;-64
2023/07/12 12:09:48;;;;;;;2.15;1.40;;;;;;;21.84;94.60;100745.28;20884817;28;20103;-64
2023/07/12 12:19:50;;;;;;;6.15;2.00;;;;;;;21.83;93.62;100746.28;20882176;28;20057;-63
2023/07/12 12:29:52;;;;;;;3.60;1.65;;;;;;;21.82;92.31;100755.44;20875676;28;20907;-63
2023/07/12 12:40:06;;;;;;;3.92;1.75;;;;;;;21.79;92.79;100771.16;20871125;28;20053;-64
2023/07/12 12:50:17;;;;;;;3.70;1.83;;;;;;;21.88;92.92;100773.72;20860283;28;20128;-64
2023/07/12 13:00:23;;;;;;;7.40;1.83;;;;;;;21.90;93.58;100786.25;20892323;28;20037;-62
2023/07/12 13:10:27;;;;;;;4.82;1.55;;;;;;;21.92;93.35;100781.53;20874689;28;20155;-62
2023/07/12 13:20:33;;;;;;;4.75;1.55;;;;;;;21.86;89.68;100772.19;20896817;28;20045;-62
2023/07/12 13:30:38;;;;;;;4.15;1.60;;;;;;;21.83;88.77;100777.94;20910231;28;20667;-62
2023/07/12 13:40:40;;;;;;;5.72;1.20;;;;;;;21.36;87.66;100731.38;20910796;28;20106;-62
2023/07/12 13:50:46;;;;;;;2.03;1.02;;;;;;;21.74;87.10;100804.19;20911032;28;20057;-62
2023/07/12 14:00:48;;;;;;;2.75;1.10;;;;;;;21.73;85.92;100805.19;20953131;28;20052;-62
2023/07/12 14:11:26;;;;;;;3.65;1.27;;;;;;;21.70;84.83;100809.06;20991156;28;20068;-62
2023/07/12 14:21:28;;;;;;;1.45;0.90;;;;;;;21.70;84.16;100819.06;20973559;28;20098;-62
2023/07/12 14:31:30;;;;;;;2.33;0.98;;;;;;;21.63;83.84;100816.13;20911981;28;20048;-62
2023/07/12 14:41:33;;;;;;;1.30;1.05;;;;;;;21.66;84.01;100837.50;20897908;28;20103;-61
2023/07/12 14:51:35;;;;;;;2.08;0.95;;;;;;;21.64;82.53;100834.13;20873450;28;20049;-62
2023/07/12 15:01:36;;;;;;;1.98;0.80;;;;;;;21.61;82.12;100820.00;20885432;28;20092;-62
2023/07/12 15:11:38;;;;;;;2.40;0.98;;;;;;;21.57;82.46;100822.19;20886001;28;20045;-62
2023/07/12 15:21:41;;;;;;;2.15;1.15;;;;;;;21.55;82.06;100841.31;20879139;28;20049;-62
2023/07/12 15:31:44;;;;;;;1.20;0.80;;;;;;;21.52;82.21;100841.63;20893311;28;20136;-62
2023/07/12 15:41:48;;;;;;;1.27;0.90;;;;;;;21.50;81.67;100848.25;20885037;28;20515;-62
2023/07/12 15:51:50;;;;;;;1.05;0.70;;;;;;;21.47;81.13;100838.56;20887342;28;20057;-62
2023/07/12 16:01:52;;;;;;;1.80;0.90;;;;;;;21.44;80.28;100834.34;20888615;28;20135;-62
2023/07/12 16:11:53;;;;;;;2.97;0.80;;;;;;;21.42;82.29;100839.03;20888230;28;20041;-62
2023/07/12 16:21:56;;;;;;;2.72;1.15;;;;;;;21.46;85.00;100845.00;20878526;28;20090;-62
2023/07/12 16:31:57;;;;;;;3.83;1.30;;;;;;;21.47;85.17;100849.41;20861556;28;20048;-63
2023/07/12 16:41:59;;;;;;;2.85;1.15;;;;;;;21.55;84.83;100856.72;20852536;28;20075;-63
2023/07/12 16:52:04;;;;;;;2.88;1.30;;;;;;;21.54;84.39;100855.88;20868237;28;20784;-62
2023/07/12 17:02:19;;;;;;;3.22;1.70;;;;;;;21.51;87.14;100839.94;20880111;28;20511;-62
2023/07/12 17:12:27;;;;;;;3.27;1.50;;;;;;;21.61;87.80;100866.91;20860737;28;20618;-62
2023/07/12 17:22:28;;;;;;;2.08;0.85;;;;;;;21.61;87.49;100868.75;20875596;28;20476;-62
2023/07/12 17:32:33;;;;;;;2.03;0.90;;;;;;;21.58;87.28;100862.66;20874340;28;20037;-61
2023/07/12 17:42:34;;;;;;;;;;;;;;;21.56;86.71;100875.50;20877639;28;20515;-61
2023/07/12 17:52:36;;;;;;;1.15;0.98;;;;;;;21.52;84.35;100867.91;20871632;28;19929;-62
2023/07/12 18:02:37;;;;;;;1.75;0.90;;;;;;;21.50;85.19;100865.34;20859625;28;20226;-62
2023/07/12 18:12:39;;;;;;;1.10;0.77;;;;;;;21.45;82.16;100873.09;20880576;28;20145;-62
2023/07/12 18:22:41;;;;;;;3.92;1.00;;;;;;;21.45;82.15;100878.50;20880278;28;20084;-62
2023/07/12 18:32:42;;;;;;;1.15;0.70;;;;;;;21.41;80.20;100882.56;20859739;28;20392;-62
2023/07/12 18:42:44;;;;;;;1.88;0.80;;;;;;;21.39;79.60;100895.41;20873754;28;20049;-62
2023/07/12 18:52:46;;;;;;;1.83;0.90;;;;;;;21.37;79.83;100900.13;20857415;28;20135;-62
2023/07/12 19:02:48;;;;;;;1.67;0.85;;;;;;;21.28;79.99;100891.97;20859038;28;20048;-62
2023/07/12 19:55:50;;;;;;;1.40;0.90;;;;;;;21.06;79.04;100939.34;23141251;23;20057;-69
2023/07/12 20:05:52;;;;;;;1.83;1.20;;;;;;;21.08;78.90;100947.28;20231355;29;20509;-69
2023/07/12 20:15:55;;;;;;;2.97;0.73;;;;;;;21.12;80.22;100967.63;20239053;29;20704;-70
2023/07/12 20:25:57;;;;;;;1.40;0.73;;;;;;;21.09;81.07;100965.22;20243345;29;20053;-70
2023/07/12 20:35:58;;;;;;;1.65;0.80;;;;;;;21.04;79.71;100957.59;20243315;29;20051;-70
2023/07/12 20:46:01;;;;;;;1.52;1.08;;;;;;;21.00;79.37;100957.03;20233972;29;20104;-70
2023/07/12 20:56:04;;;;;;;1.65;1.00;;;;;;;20.91;79.15;100940.88;20242163;29;20048;-70
2023/07/12 21:06:06;;;;;;;2.08;0.75;;;;;;;20.96;79.20;100947.53;20241502;29;20536;-70
2023/07/12 21:16:10;;;;;;;1.73;0.73;;;;;;;20.93;79.39;100937.03;20244305;29;20048;-70
2023/07/12 21:26:13;;;;;;;1.15;0.80;;;;;;;20.92;79.52;100945.28;20247101;29;20049;-70
2023/07/12 21:36:15;;;;;;;2.03;1.00;;;;;;;20.90;80.11;100955.41;20239949;29;20072;-70
2023/07/12 21:46:17;;;;;;;1.00;0.68;;;;;;;20.86;79.87;100950.31;20260610;29;20100;-70
2023/07/12 21:56:19;;;;;;;2.72;1.10;;;;;;;20.85;80.57;100959.44;20252610;29;20575;-70
2023/07/12 22:06:21;;;;;;;1.17;0.93;;;;;;;20.82;79.71;100953.50;20250541;29;20131;-70
2023/07/12 22:16:24;;;;;;;0.90;0.80;;;;;;;20.56;80.09;100919.06;20265744;29;20052;-70
2023/07/12 22:26:27;;;;;;;1.30;1.02;;;;;;;20.80;80.74;100969.88;20266524;29;20049;-70
2023/07/12 22:36:29;;;;;;;1.23;0.80;;;;;;;20.79;81.01;100970.06;20265477;29;20044;-70
2023/07/12 22:46:30;;;;;;;1.30;0.90;;;;;;;20.77;79.88;100972.00;20263915;29;20048;-70
2023/07/12 22:56:32;;;;;;;2.05;0.90;;;;;;;20.75;79.65;100966.75;20240577;29;20496;-70
2023/07/12 23:06:38;;;;;;;1.00;0.90;;;;;;;20.71;79.78;100958.09;20252713;29;20100;-70
2023/07/12 23:16:41;;;;;;;1.73;1.00;;;;;;;20.64;80.11;100958.88;20253649;29;20120;-70
2023/07/12 23:26:42;;;;;;;2.38;1.15;;;;;;;20.70;79.94;100961.78;20261769;29;20497;-70
2023/07/12 23:36:44;;;;;;;1.65;0.90;;;;;;;20.69;80.07;100965.50;20261569;29;20628;-70
2023/07/12 23:46:45;;;;;;;2.15;1.20;;;;;;;20.67;81.38;100958.56;20256063;29;20056;-70
2023/07/12 23:56:47;;;;;;;2.20;0.98;;;;;;;20.65;81.62;100956.00;20259497;29;20109;-70
